Time;durP1;ratioP1;P1;durP2;ratioP2;P2;SDS_P1;SDS_P2;PMS_P1;PMS_P2;Temp;Humidity;BMP_temperature;BMP_pressure;BME280_temperature;BME280_humidity;BME280_pressure;Samples;Min_cycle;Max_cycle;Signal;HPM_P1;HPM_P2
2022/04/01 00:10:58;;;;;;;1.87;0.60;;;14.70;99.90;;;;;;6327635;22;20185;-91
2022/04/01 00:13:30;;;;;;;1.57;0.80;;;14.50;99.90;;;;;;6252430;22;20200;-92
2022/04/01 00:18:50;;;;;;;1.23;0.60;;;14.40;99.90;;;;;;6294505;22;20205;-91
2022/04/01 00:21:37;;;;;;;1.27;0.63;;;14.10;99.90;;;;;;6291889;22;20203;-92
2022/04/01 00:24:10;;;;;;;3.10;0.80;;;13.70;99.90;;;;;;6285258;22;20277;-91
2022/04/01 00:26:42;;;;;;;2.97;0.87;;;13.80;99.90;;;;;;6283919;22;20179;-92
2022/04/01 00:29:20;;;;;;;3.60;1.07;;;13.90;99.90;;;;;;6287111;22;20175;-92
2022/04/01 00:31:58;;;;;;;2.50;0.80;;;13.80;99.90;;;;;;6296227;22;20167;-94
2022/04/01 00:34:31;;;;;;;1.70;0.77;;;13.80;99.90;;;;;;6298145;22;20162;-92
2022/04/01 00:40:30;;;;;;;2.00;0.97;;;13.90;99.90;;;;;;6292040;22;20203;-92
2022/04/01 00:43:02;;;;;;;2.63;0.80;;;13.60;99.90;;;;;;6296231;22;20167;-93
2022/04/01 00:48:13;;;;;;;0.90;0.60;;;13.80;99.90;;;;;;6255525;22;20193;-91
2022/04/01 00:56:26;;;;;;;1.60;0.77;;;13.50;99.90;;;;;;6325700;22;20201;-91
2022/04/01 00:59:02;;;;;;;2.07;0.63;;;13.20;99.90;;;;;;6326576;22;20174;-91
2022/04/01 01:01:34;;;;;;;3.00;0.77;;;12.90;99.90;;;;;;6319666;22;20175;-90
2022/04/01 01:04:08;;;;;;;4.03;0.90;;;12.90;99.90;;;;;;6328479;22;20224;-91
2022/04/01 01:06:43;;;;;;;2.63;0.70;;;12.70;99.90;;;;;;6302360;22;20265;-91
2022/04/01 01:09:19;;;;;;;2.00;0.70;;;12.70;99.90;;;;;;6276543;22;20189;-91
2022/04/01 01:11:55;;;;;;;1.33;0.93;;;12.50;99.90;;;;;;6329729;22;20174;-91
2022/04/01 01:14:30;;;;;;;2.67;0.83;;;12.40;99.90;;;;;;6331900;22;20208;-92
2022/04/01 01:17:02;;;;;;;2.83;0.80;;;12.10;99.90;;;;;;6322724;22;20173;-91
2022/04/01 01:25:22;;;;;;;1.63;0.90;;;11.90;99.90;;;;;;6324383;22;20198;-90
2022/04/01 01:27:53;;;;;;;2.53;1.00;;;11.90;99.90;;;;;;6320723;22;20173;-90
2022/04/01 01:30:29;;;;;;;1.47;0.73;;;11.50;99.90;;;;;;6327213;22;20162;-90
2022/04/01 01:33:02;;;;;;;2.07;0.87;;;11.50;99.90;;;;;;6327454;22;20166;-91
2022/04/01 01:35:35;;;;;;;0.97;0.60;;;11.50;99.90;;;;;;6327507;22;20170;-90
2022/04/01 01:38:08;;;;;;;1.10;0.53;;;11.40;99.90;;;;;;6321559;22;20170;-91
2022/04/01 01:40:43;;;;;;;1.20;0.70;;;11.30;99.90;;;;;;6326787;22;20174;-92
2022/04/01 01:43:14;;;;;;;1.60;0.73;;;11.20;99.90;;;;;;6319839;22;20200;-91
2022/04/01 01:45:46;;;;;;;1.30;0.80;;;11.10;99.90;;;;;;6320429;22;20186;-91
2022/04/01 01:48:22;;;;;;;2.07;0.97;;;11.20;99.90;;;;;;6321541;22;20539;-92
2022/04/01 01:59:47;;;;;;;2.80;1.10;;;10.80;99.90;;;;;;6333306;22;20185;-91
2022/04/01 02:07:37;;;;;;;1.60;0.67;;;10.40;99.90;;;;;;6312246;22;20220;-92
2022/04/01 02:10:23;;;;;;;1.50;0.90;;;10.30;99.90;;;;;;6334131;22;20170;-91
2022/04/01 02:15:42;;;;;;;3.60;1.53;;;10.20;99.90;;;;;;6311369;22;20210;-91
2022/04/01 02:23:50;;;;;;;3.40;1.10;;;9.90;99.90;;;;;;6288970;22;20610;-91
2022/04/01 02:26:22;;;;;;;2.57;1.23;;;9.80;99.90;;;;;;6291061;22;20357;-89
2022/04/01 02:28:56;;;;;;;4.27;1.20;;;9.70;99.90;;;;;;6272860;22;20189;-91
2022/04/01 02:31:30;;;;;;;2.83;1.17;;;9.60;99.90;;;;;;6300958;22;20171;-90
2022/04/01 02:34:03;;;;;;;3.50;1.27;;;9.60;99.90;;;;;;6303574;22;20155;-89
2022/04/01 02:36:49;;;;;;;1.83;1.10;;;9.50;99.90;;;;;;6287505;22;20206;-90
2022/04/01 02:39:29;;;;;;;1.60;1.00;;;9.40;99.90;;;;;;6334925;22;20166;-90
2022/04/01 02:42:02;;;;;;;1.83;1.00;;;9.30;99.90;;;;;;6331898;22;20170;-91
2022/04/01 02:44:33;;;;;;;1.53;0.93;;;9.30;99.90;;;;;;6329001;22;20293;-90
2022/04/01 02:47:10;;;;;;;3.40;0.90;;;9.20;99.90;;;;;;6328691;22;20174;-91
2022/04/01 02:49:49;;;;;;;2.37;1.00;;;9.10;99.90;;;;;;6327710;22;20174;-91
2022/04/01 02:52:20;;;;;;;4.30;1.17;;;9.00;99.90;;;;;;6294592;22;20193;-92
2022/04/01 02:54:52;;;;;;;3.63;0.80;;;8.90;99.90;;;;;;6320164;22;20212;-91
2022/04/01 02:57:28;;;;;;;1.67;0.80;;;8.90;99.90;;;;;;6324339;22;20150;-92
2022/04/01 03:00:10;;;;;;;1.50;0.80;;;8.80;99.90;;;;;;6308445;22;20339;-92
2022/04/01 03:02:47;;;;;;;2.70;1.17;;;8.70;99.90;;;;;;6333917;22;20181;-92
2022/04/01 03:08:20;;;;;;;0.87;0.80;;;8.70;99.90;;;;;;6325755;22;20184;-91
2022/04/01 03:13:52;;;;;;;1.97;0.80;;;8.60;99.90;;;;;;6326752;22;20226;-91
2022/04/01 03:27:26;;;;;;;1.77;0.90;;;8.50;99.90;;;;;;6281980;22;20274;-91
2022/04/01 03:29:59;;;;;;;3.57;0.70;;;8.50;99.90;;;;;;6296141;22;20175;-91
2022/04/01 03:32:34;;;;;;;2.07;0.77;;;8.40;99.90;;;;;;6273021;22;20236;-90
2022/04/01 03:35:09;;;;;;;3.93;0.80;;;8.50;99.90;;;;;;6303229;22;20162;-90
2022/04/01 03:37:41;;;;;;;1.87;0.97;;;8.50;99.90;;;;;;6298420;22;20171;-89
2022/04/01 03:40:14;;;;;;;1.33;1.00;;;8.50;99.90;;;;;;6303896;22;20163;-90
2022/04/01 03:43:01;;;;;;;2.17;1.00;;;8.50;99.90;;;;;;6302149;22;20520;-92
2022/04/01 03:45:37;;;;;;;2.07;0.77;;;8.50;99.90;;;;;;6304272;22;20212;-90
2022/04/01 03:48:16;;;;;;;1.43;0.93;;;8.50;99.90;;;;;;6304545;22;20166;-91
2022/04/01 03:53:44;;;;;;;1.33;0.70;;;8.40;99.90;;;;;;6293651;22;20182;-92
2022/04/01 03:56:17;;;;;;;2.60;1.00;;;8.40;99.90;;;;;;6297182;22;20174;-90
2022/04/01 03:58:54;;;;;;;2.10;1.17;;;8.40;99.90;;;;;;6268808;22;20167;-91
2022/04/01 04:01:28;;;;;;;4.23;1.20;;;8.40;99.90;;;;;;6296690;22;20512;-90
2022/04/01 04:04:03;;;;;;;2.77;1.10;;;8.40;99.90;;;;;;6302713;22;20163;-91
2022/04/01 04:06:37;;;;;;;3.20;1.40;;;8.40;99.90;;;;;;6299871;22;20205;-92
2022/04/01 04:09:12;;;;;;;5.37;1.63;;;8.30;99.90;;;;;;6277008;22;20190;-92
2022/04/01 04:17:11;;;;;;;2.53;1.30;;;8.40;99.90;;;;;;6327256;22;20260;-91
2022/04/01 04:25:10;;;;;;;3.93;1.33;;;8.40;99.90;;;;;;6303324;22;20200;-91
2022/04/01 04:33:10;;;;;;;3.03;1.40;;;8.40;99.90;;;;;;6293120;22;20208;-92
2022/04/01 04:35:43;;;;;;;2.40;1.80;;;8.40;99.90;;;;;;6292421;22;20273;-91
2022/04/01 04:38:20;;;;;;;2.93;1.40;;;8.40;99.90;;;;;;6293779;22;20190;-92
2022/04/01 04:43:52;;;;;;;2.07;1.20;;;8.40;99.90;;;;;;6293938;22;20178;-91
2022/04/01 04:46:26;;;;;;;2.10;1.00;;;8.40;99.90;;;;;;6293609;22;20198;-91
2022/04/01 04:49:01;;;;;;;1.57;1.10;;;8.50;99.90;;;;;;6289555;22;20202;-90
2022/04/01 04:51:33;;;;;;;1.80;1.13;;;8.30;99.90;;;;;;6286929;22;20175;-91
2022/04/01 04:54:07;;;;;;;2.53;1.33;;;8.30;99.90;;;;;;6242511;22;20164;-91
2022/04/01 04:56:39;;;;;;;3.53;1.03;;;8.30;99.90;;;;;;6290808;22;20167;-91
2022/04/01 04:59:12;;;;;;;1.23;1.00;;;8.30;99.90;;;;;;6290482;22;20179;-91
2022/04/01 05:01:50;;;;;;;2.53;1.13;;;8.30;99.90;;;;;;6264646;22;20168;-92
2022/04/01 05:04:39;;;;;;;2.33;1.30;;;8.30;99.90;;;;;;6293841;22;20483;-91
2022/04/01 05:07:24;;;;;;;3.10;1.37;;;8.30;99.90;;;;;;6295554;22;20203;-92
2022/04/01 05:10:09;;;;;;;1.30;0.87;;;8.30;99.90;;;;;;6296109;22;20159;-92
2022/04/01 05:12:56;;;;;;;1.40;1.10;;;8.30;99.90;;;;;;6296284;22;20174;-92
2022/04/01 05:15:32;;;;;;;2.93;1.13;;;8.30;99.90;;;;;;6294611;22;20248;-92
2022/04/01 05:18:08;;;;;;;2.27;1.10;;;8.40;99.90;;;;;;6292799;22;20185;-92
2022/04/01 05:20:48;;;;;;;4.40;1.50;;;8.30;99.90;;;;;;6287507;22;20656;-92
2022/04/01 05:23:38;;;;;;;1.90;1.30;;;8.30;99.90;;;;;;6288382;22;20190;-91
2022/04/01 05:26:38;;;;;;;2.97;1.30;;;8.30;99.90;;;;;;6288871;22;20240;-91
2022/04/01 05:29:15;;;;;;;1.87;1.00;;;8.30;99.90;;;;;;6292134;22;20178;-92
2022/04/01 05:31:55;;;;;;;1.23;0.80;;;8.30;99.90;;;;;;6325365;22;20185;-91
2022/04/01 05:34:43;;;;;;;1.63;0.70;;;8.30;99.90;;;;;;6295586;22;20173;-91
2022/04/01 05:40:05;;;;;;;0.87;0.80;;;8.20;99.90;;;;;;6324831;22;20174;-90
2022/04/01 05:42:41;;;;;;;3.07;0.90;;;8.20;99.90;;;;;;6321029;22;20647;-91
2022/04/01 05:45:23;;;;;;;1.67;0.80;;;8.20;99.90;;;;;;6316484;22;20162;-91
2022/04/01 05:48:11;;;;;;;2.57;1.00;;;8.20;99.90;;;;;;6303810;22;20178;-90
2022/04/01 05:50:48;;;;;;;1.63;1.03;;;8.20;99.90;;;;;;6318551;22;20181;-91
2022/04/01 05:53:54;;;;;;;2.97;1.30;;;8.20;99.90;;;;;;6319432;22;20540;-91
2022/04/01 05:56:31;;;;;;;1.43;0.90;;;8.20;99.90;;;;;;6316931;22;20186;-91
2022/04/01 05:59:03;;;;;;;3.23;1.10;;;8.20;99.90;;;;;;6285321;22;20181;-92
2022/04/01 06:01:47;;;;;;;1.03;0.83;;;8.20;99.90;;;;;;6318488;22;20556;-92
2022/04/01 06:04:45;;;;;;;1.17;0.87;;;8.20;99.90;;;;;;6313933;22;20181;-91
2022/04/01 06:07:28;;;;;;;2.17;0.90;;;8.20;99.90;;;;;;6316969;22;20194;-92
2022/04/01 06:10:09;;;;;;;0.87;0.70;;;8.20;99.90;;;;;;6314292;22;20190;-92
2022/04/01 06:12:54;;;;;;;1.63;0.87;;;8.20;99.90;;;;;;6313407;22;20174;-90
2022/04/01 06:15:33;;;;;;;1.73;0.90;;;8.20;99.90;;;;;;6313006;22;20177;-91
2022/04/01 06:18:15;;;;;;;1.50;0.90;;;8.20;99.90;;;;;;6312759;22;20505;-90
2022/04/01 06:20:50;;;;;;;1.90;1.10;;;8.20;99.90;;;;;;6313287;22;20174;-90
2022/04/01 06:23:42;;;;;;;2.47;1.23;;;8.30;99.90;;;;;;6323083;22;20192;-90
2022/04/01 06:26:16;;;;;;;1.17;0.83;;;8.20;99.90;;;;;;6334663;22;20250;-90
2022/04/01 06:28:55;;;;;;;1.90;1.03;;;8.20;99.90;;;;;;6333910;22;20177;-90
2022/04/01 06:31:33;;;;;;;1.60;1.17;;;8.10;99.90;;;;;;6335038;22;20174;-90
2022/04/01 06:34:11;;;;;;;1.30;1.00;;;8.10;99.90;;;;;;6332892;22;20225;-90
2022/04/01 06:36:52;;;;;;;1.17;0.83;;;8.00;99.90;;;;;;6324869;22;20217;-91
2022/04/01 06:39:35;;;;;;;2.43;1.00;;;8.00;99.90;;;;;;6316466;22;20174;-91
2022/04/01 06:42:11;;;;;;;2.67;0.90;;;8.00;99.90;;;;;;6314328;22;20174;-92
2022/04/01 06:44:42;;;;;;;1.57;1.03;;;8.00;99.90;;;;;;6313769;22;20174;-91
2022/04/01 06:47:14;;;;;;;1.40;1.00;;;8.00;99.90;;;;;;6315593;22;20197;-91
2022/04/01 06:49:50;;;;;;;2.70;1.10;;;8.00;99.90;;;;;;6287986;22;20228;-91
2022/04/01 06:52:21;;;;;;;2.27;1.07;;;8.00;99.90;;;;;;6316126;22;20180;-91
2022/04/01 06:54:51;;;;;;;2.40;1.00;;;8.00;99.90;;;;;;6312852;22;20516;-91
2022/04/01 06:57:28;;;;;;;3.63;1.30;;;7.90;99.90;;;;;;6316650;22;20613;-90
2022/04/01 06:59:59;;;;;;;2.33;1.10;;;7.90;99.90;;;;;;6317273;22;20276;-91
2022/04/01 07:02:31;;;;;;;2.23;1.00;;;7.90;99.90;;;;;;6313715;22;20236;-91
2022/04/01 07:05:02;;;;;;;1.87;1.00;;;7.90;99.90;;;;;;6320296;22;20182;-91
2022/04/01 07:07:34;;;;;;;1.43;1.10;;;7.90;99.90;;;;;;6316276;22;20198;-92
2022/04/01 07:10:07;;;;;;;3.43;1.33;;;7.80;99.90;;;;;;6313268;22;20613;-91
2022/04/01 07:12:40;;;;;;;1.53;1.03;;;7.80;99.90;;;;;;6313491;22;20190;-91
2022/04/01 07:15:12;;;;;;;2.13;1.30;;;7.70;99.90;;;;;;6313632;22;20178;-91
2022/04/01 07:17:44;;;;;;;3.27;1.33;;;7.80;99.90;;;;;;6313274;22;20186;-91
2022/04/01 07:20:16;;;;;;;1.63;1.03;;;7.70;99.90;;;;;;6289739;22;20654;-91
2022/04/01 07:22:53;;;;;;;3.87;1.37;;;7.70;99.90;;;;;;6283350;22;20186;-91
2022/04/01 07:25:25;;;;;;;4.83;1.50;;;7.70;99.90;;;;;;6298592;22;20196;-90
2022/04/01 07:27:58;;;;;;;3.00;1.30;;;7.80;99.90;;;;;;6302888;22;20281;-91
2022/04/01 07:30:30;;;;;;;2.00;1.00;;;7.80;99.90;;;;;;6303815;22;20202;-92
2022/04/01 07:33:03;;;;;;;4.70;1.57;;;7.90;99.90;;;;;;6277721;22;20175;-91
2022/04/01 07:35:36;;;;;;;1.80;1.00;;;7.80;99.90;;;;;;6302811;22;20167;-91
2022/04/01 07:38:10;;;;;;;2.20;1.00;;;7.70;99.90;;;;;;6303313;22;20251;-90
2022/04/01 07:40:42;;;;;;;2.37;1.00;;;7.70;99.90;;;;;;6303796;22;20151;-91
2022/04/01 07:43:18;;;;;;;3.40;1.17;;;7.70;99.90;;;;;;6301551;22;20214;-91
2022/04/01 07:45:50;;;;;;;2.93;1.17;;;7.70;99.90;;;;;;6300020;22;20167;-91
2022/04/01 07:48:22;;;;;;;1.20;0.83;;;7.60;99.90;;;;;;6299476;22;20198;-90
2022/04/01 07:50:54;;;;;;;1.00;0.70;;;7.70;99.90;;;;;;6298813;22;20170;-91
2022/04/01 07:53:25;;;;;;;1.50;0.80;;;7.70;99.90;;;;;;6299522;22;20487;-91
2022/04/01 07:55:57;;;;;;;1.80;0.87;;;7.60;99.90;;;;;;6302138;22;20167;-90
2022/04/01 07:58:35;;;;;;;3.00;1.10;;;7.60;99.90;;;;;;6301558;22;20171;-90
2022/04/01 08:01:07;;;;;;;2.30;1.20;;;7.50;99.90;;;;;;6303916;22;20162;-90
2022/04/01 08:03:44;;;;;;;1.90;1.27;;;7.50;99.90;;;;;;6298768;22;20178;-90
2022/04/01 08:06:17;;;;;;;1.97;1.50;;;7.50;99.90;;;;;;6297711;22;20174;-90
2022/04/01 08:08:48;;;;;;;2.03;1.70;;;7.50;99.90;;;;;;6297454;22;20205;-90
2022/04/01 08:11:22;;;;;;;4.20;2.00;;;7.50;99.90;;;;;;6288415;22;20175;-90
2022/04/01 08:13:56;;;;;;;2.97;1.90;;;7.40;99.90;;;;;;6292518;22;20278;-91
2022/04/01 08:16:27;;;;;;;3.57;1.93;;;7.40;99.90;;;;;;6285946;22;20229;-92
2022/04/01 08:18:59;;;;;;;1.97;1.40;;;7.30;99.90;;;;;;6293251;22;20307;-92
2022/04/01 08:21:30;;;;;;;1.40;1.20;;;7.40;99.90;;;;;;6314809;22;20178;-92
2022/04/01 08:24:02;;;;;;;1.43;0.87;;;7.30;99.90;;;;;;6316118;22;20163;-92
2022/04/01 08:26:33;;;;;;;1.10;0.97;;;7.30;99.90;;;;;;6314455;22;20174;-92
2022/04/01 08:29:07;;;;;;;1.50;0.90;;;7.30;99.90;;;;;;6313949;22;20214;-92
2022/04/01 08:31:39;;;;;;;2.70;0.90;;;7.20;99.90;;;;;;6317245;22;20174;-92
2022/04/01 08:34:13;;;;;;;1.60;1.00;;;7.20;99.90;;;;;;6315220;22;20174;-91
2022/04/01 08:36:44;;;;;;;3.00;1.30;;;7.10;99.90;;;;;;6327108;22;20170;-91
2022/04/01 08:39:18;;;;;;;2.10;0.80;;;7.10;99.90;;;;;;6327440;22;20201;-87
2022/04/01 08:41:50;;;;;;;2.47;1.03;;;7.00;99.90;;;;;;6327345;22;20177;-90
2022/04/01 08:44:24;;;;;;;2.67;1.10;;;7.00;99.90;;;;;;6296799;22;20169;-90
2022/04/01 08:46:56;;;;;;;2.37;0.87;;;6.90;99.90;;;;;;6315254;22;20197;-90
2022/04/01 08:49:27;;;;;;;1.27;1.03;;;6.80;99.90;;;;;;6314211;22;20184;-91
2022/04/01 08:51:58;;;;;;;1.90;0.90;;;6.70;99.90;;;;;;6315122;22;20177;-90
2022/04/01 08:54:32;;;;;;;1.90;1.10;;;6.60;99.90;;;;;;6315708;22;20624;-90
2022/04/01 08:57:05;;;;;;;1.73;1.00;;;6.50;99.90;;;;;;6314580;22;20182;-91
2022/04/01 08:59:38;;;;;;;1.30;1.03;;;6.50;99.90;;;;;;6313369;22;20201;-89
2022/04/01 09:02:10;;;;;;;2.07;0.90;;;6.40;99.90;;;;;;6320949;22;20208;-91
2022/04/01 09:04:42;;;;;;;2.93;1.10;;;6.30;99.90;;;;;;6333132;22;20231;-91
2022/04/01 09:07:15;;;;;;;2.23;1.00;;;6.30;99.90;;;;;;6330811;22;20170;-92
2022/04/01 09:09:46;;;;;;;1.53;0.90;;;6.30;99.90;;;;;;6333133;22;20177;-90
2022/04/01 09:12:19;;;;;;;2.20;0.97;;;6.20;99.90;;;;;;6330924;22;20173;-91
2022/04/01 09:14:56;;;;;;;1.83;1.10;;;6.20;99.90;;;;;;6316038;22;20167;-90
2022/04/01 09:17:42;;;;;;;1.47;0.90;;;6.10;99.90;;;;;;6313610;22;20174;-90
2022/04/01 09:20:16;;;;;;;2.07;0.73;;;6.00;99.90;;;;;;6312222;22;20193;-91
2022/04/01 09:22:48;;;;;;;3.07;0.97;;;5.90;99.90;;;;;;6286032;22;20202;-91
2022/04/01 09:25:21;;;;;;;1.13;0.77;;;5.90;99.90;;;;;;6312912;22;20195;-91
2022/04/01 09:27:53;;;;;;;1.67;0.90;;;5.90;99.90;;;;;;6311673;22;20270;-88
2022/04/01 09:30:31;;;;;;;2.53;0.90;;;5.80;99.90;;;;;;6311638;22;20220;-90
2022/04/01 09:33:04;;;;;;;1.37;0.80;;;5.80;99.90;;;;;;6328714;22;20177;-92
2022/04/01 09:35:36;;;;;;;2.60;1.10;;;5.80;99.90;;;;;;6327339;22;20519;-91
2022/04/01 09:38:09;;;;;;;3.17;1.00;;;5.80;99.90;;;;;;6329235;22;20174;-92
2022/04/01 09:40:44;;;;;;;1.37;0.87;;;5.80;99.90;;;;;;6329417;22;20174;-92
2022/04/01 09:43:25;;;;;;;1.30;0.90;;;5.80;99.90;;;;;;6329654;22;20170;-90
2022/04/01 09:46:07;;;;;;;1.73;1.20;;;5.70;99.90;;;;;;6323406;22;20186;-90
2022/04/01 09:48:44;;;;;;;1.13;1.00;;;5.70;99.90;;;;;;6319480;22;20201;-90
2022/04/01 09:51:16;;;;;;;1.47;1.10;;;5.70;99.90;;;;;;6319387;22;20623;-90
2022/04/01 09:53:53;;;;;;;1.80;1.03;;;5.70;99.90;;;;;;6314800;22;20557;-90
2022/04/01 09:56:46;;;;;;;2.90;1.00;;;5.70;99.90;;;;;;6314748;22;20271;-90
2022/04/01 09:59:19;;;;;;;2.10;1.17;;;5.70;99.90;;;;;;6314128;22;20179;-90
2022/04/01 10:01:54;;;;;;;4.23;1.13;;;5.70;99.90;;;;;;6290288;22;20208;-90
2022/04/01 10:04:25;;;;;;;2.10;1.00;;;5.70;99.90;;;;;;6313262;22;20231;-90
2022/04/01 10:06:57;;;;;;;3.57;1.43;;;5.70;99.90;;;;;;6321990;22;20174;-90
2022/04/01 10:09:29;;;;;;;1.87;1.63;;;5.70;99.90;;;;;;6314027;22;20229;-90
2022/04/01 10:12:21;;;;;;;1.87;1.10;;;5.70;99.90;;;;;;6315063;22;20209;-90
2022/04/01 10:14:55;;;;;;;1.43;1.07;;;5.70;99.90;;;;;;6315030;22;20173;-90
2022/04/01 10:17:32;;;;;;;2.50;1.00;;;5.80;99.90;;;;;;6313896;22;20198;-89
2022/04/01 10:20:03;;;;;;;2.50;1.20;;;5.80;99.90;;;;;;6314757;22;20192;-90
2022/04/01 10:22:36;;;;;;;1.47;0.97;;;5.80;99.90;;;;;;6287669;22;20613;-90
2022/04/01 10:25:16;;;;;;;1.73;1.20;;;5.80;99.90;;;;;;6313236;22;20174;-90
2022/04/01 10:27:52;;;;;;;1.60;1.00;;;5.80;99.90;;;;;;6313186;22;20177;-91
2022/04/01 10:30:27;;;;;;;1.37;1.00;;;5.90;99.90;;;;;;6314573;22;20204;-91
2022/04/01 10:33:01;;;;;;;3.67;1.20;;;5.80;99.90;;;;;;6315231;22;20173;-90
2022/04/01 10:35:34;;;;;;;2.83;1.17;;;5.80;99.90;;;;;;6331847;22;20181;-89
2022/04/01 10:38:19;;;;;;;2.67;1.20;;;5.80;99.90;;;;;;6328901;22;20178;-90
2022/04/01 10:40:53;;;;;;;2.90;1.00;;;5.70;99.90;;;;;;6331015;22;20197;-90
2022/04/01 10:43:29;;;;;;;2.83;1.30;;;5.70;99.90;;;;;;6329518;22;20208;-90
2022/04/01 10:46:04;;;;;;;5.80;1.40;;;5.70;99.90;;;;;;6332383;22;20571;-90
2022/04/01 10:51:39;;;;;;;3.53;1.63;;;5.70;99.90;;;;;;6329702;22;20185;-90
2022/04/01 10:54:53;;;;;;;3.07;1.33;;;5.70;99.90;;;;;;6329112;22;20186;-91
2022/04/01 10:57:32;;;;;;;4.97;1.90;;;5.80;99.90;;;;;;6326074;22;20174;-90
2022/04/01 11:00:07;;;;;;;2.23;1.50;;;5.80;99.90;;;;;;6288290;22;20167;-91
2022/04/01 11:02:40;;;;;;;5.23;1.67;;;5.90;99.90;;;;;;6316028;22;20178;-90
2022/04/01 11:05:33;;;;;;;5.63;1.80;;;6.00;99.90;;;;;;6315202;22;20182;-90
2022/04/01 11:08:21;;;;;;;3.40;1.47;;;6.00;99.90;;;;;;6313041;22;20228;-90
2022/04/01 11:11:10;;;;;;;6.17;1.83;;;6.10;99.90;;;;;;6315544;22;20174;-91
2022/04/01 11:13:41;;;;;;;2.57;1.80;;;6.20;99.90;;;;;;6315530;22;20225;-90
2022/04/01 11:16:22;;;;;;;4.10;1.60;;;6.20;99.90;;;;;;6312976;22;20197;-90
2022/04/01 11:19:15;;;;;;;6.20;1.77;;;6.20;99.90;;;;;;6315306;22;20226;-90
2022/04/01 11:21:50;;;;;;;5.63;1.80;;;6.20;99.90;;;;;;6312652;22;20174;-91
2022/04/01 11:24:41;;;;;;;6.30;1.97;;;6.20;99.90;;;;;;6312900;22;20199;-90
2022/04/01 11:27:25;;;;;;;5.43;1.97;;;6.10;99.90;;;;;;6312786;22;20178;-90
2022/04/01 11:30:12;;;;;;;6.43;2.40;;;6.20;99.90;;;;;;6313325;22;20201;-91
2022/04/01 11:32:45;;;;;;;3.23;1.60;;;6.30;99.90;;;;;;6319721;22;20208;-90
2022/04/01 11:35:18;;;;;;;7.30;2.00;;;6.30;99.90;;;;;;6313891;22;20174;-90
2022/04/01 11:37:53;;;;;;;4.33;1.73;;;6.20;99.90;;;;;;6316505;22;20170;-90
2022/04/01 11:40:26;;;;;;;4.73;1.60;;;6.10;99.90;;;;;;6313675;22;20280;-90
2022/04/01 11:42:59;;;;;;;5.63;1.83;;;6.10;99.90;;;;;;6313123;22;20182;-90
2022/04/01 11:45:33;;;;;;;3.97;1.90;;;6.10;99.90;;;;;;6313501;22;20692;-90
2022/04/01 11:48:15;;;;;;;3.40;1.73;;;6.10;99.90;;;;;;6311450;22;20194;-91
2022/04/01 11:50:52;;;;;;;4.90;1.70;;;6.10;99.90;;;;;;6286962;22;20236;-92
2022/04/01 11:53:26;;;;;;;7.57;1.83;;;6.10;99.90;;;;;;6315757;22;20173;-90
2022/04/01 11:55:58;;;;;;;4.10;1.67;;;6.10;99.90;;;;;;6313268;22;20189;-90
2022/04/01 11:58:37;;;;;;;6.43;1.80;;;6.10;99.90;;;;;;6284288;22;20202;-90
2022/04/01 12:01:08;;;;;;;4.10;1.40;;;6.10;99.90;;;;;;6312351;22;20174;-90
2022/04/01 12:03:39;;;;;;;4.03;1.57;;;6.10;99.90;;;;;;6286957;22;20177;-90
2022/04/01 12:09:08;;;;;;;5.97;1.40;;;6.10;99.90;;;;;;6312109;22;20174;-90
2022/04/01 12:11:42;;;;;;;5.93;2.13;;;6.10;99.90;;;;;;6313197;22;20520;-90
2022/04/01 12:14:14;;;;;;;4.43;1.50;;;6.10;99.90;;;;;;6313213;22;20177;-90
2022/04/01 12:16:47;;;;;;;6.93;1.70;;;6.10;99.90;;;;;;6312863;22;20437;-90
2022/04/01 12:19:20;;;;;;;5.50;1.90;;;6.00;99.90;;;;;;6317849;22;20178;-91
2022/04/01 12:21:53;;;;;;;1.87;1.20;;;5.90;99.90;;;;;;6319582;22;20162;-89
2022/04/01 12:24:28;;;;;;;4.07;1.53;;;5.80;99.90;;;;;;6313050;22;20186;-91
2022/04/01 12:27:01;;;;;;;7.17;1.83;;;5.80;99.90;;;;;;6312383;22;20162;-91
2022/04/01 12:29:32;;;;;;;9.90;2.30;;;5.80;99.90;;;;;;6312498;22;20195;-90
2022/04/01 12:32:05;;;;;;;6.33;1.87;;;5.70;99.90;;;;;;6312585;22;20549;-91
2022/04/01 12:34:40;;;;;;;6.87;2.33;;;5.70;99.90;;;;;;6313593;22;20598;-89
2022/04/01 12:37:16;;;;;;;3.07;1.67;;;5.60;99.90;;;;;;6312374;22;20521;-89
2022/04/01 12:40:01;;;;;;;4.43;1.80;;;5.60;99.90;;;;;;6312548;22;20170;-89
2022/04/01 12:42:39;;;;;;;4.97;1.60;;;5.50;99.90;;;;;;6313093;22;20229;-90
2022/04/01 12:45:15;;;;;;;3.97;1.83;;;5.50;99.90;;;;;;6311979;22;20170;-91
2022/04/01 12:47:47;;;;;;;7.33;1.80;;;5.50;99.90;;;;;;6310748;22;20178;-90
2022/04/01 12:50:33;;;;;;;3.50;1.80;;;5.40;99.90;;;;;;6312084;22;20645;-90
2022/04/01 12:53:12;;;;;;;8.33;2.10;;;5.40;99.90;;;;;;6311871;22;20621;-90
2022/04/01 12:55:46;;;;;;;4.37;1.90;;;5.40;99.90;;;;;;6312592;22;20166;-91
2022/04/01 12:58:17;;;;;;;3.87;2.00;;;5.40;99.90;;;;;;6311288;22;20610;-90
2022/04/01 13:00:48;;;;;;;8.17;2.50;;;5.40;99.90;;;;;;6313250;22;20462;-90
2022/04/01 13:03:23;;;;;;;4.23;1.67;;;5.40;99.90;;;;;;6313493;22;20184;-91
2022/04/01 13:06:12;;;;;;;7.60;2.50;;;5.40;99.90;;;;;;6330136;22;20174;-90
2022/04/01 13:08:44;;;;;;;7.63;2.00;;;5.30;99.90;;;;;;6332448;22;20192;-91
2022/04/01 13:11:20;;;;;;;2.60;1.47;;;5.30;99.90;;;;;;6321668;22;20195;-90
2022/04/01 13:13:54;;;;;;;3.50;1.63;;;5.30;99.90;;;;;;6295997;22;20234;-90
2022/04/01 13:16:25;;;;;;;3.67;1.70;;;5.30;99.90;;;;;;6318369;22;20162;-89
2022/04/01 13:18:56;;;;;;;8.63;2.17;;;5.20;99.90;;;;;;6314023;22;20197;-90
2022/04/01 13:21:29;;;;;;;5.70;2.03;;;5.20;99.90;;;;;;6313434;22;20197;-91
2022/04/01 13:24:01;;;;;;;3.37;1.90;;;5.20;99.90;;;;;;6313745;22;20510;-91
2022/04/01 13:26:34;;;;;;;4.50;1.90;;;5.20;99.90;;;;;;6311802;22;20174;-91
2022/04/01 13:29:06;;;;;;;8.87;2.30;;;5.20;99.90;;;;;;6311839;22;20174;-91
2022/04/01 13:31:37;;;;;;;4.23;1.53;;;5.20;99.90;;;;;;6311945;22;20197;-91
2022/04/01 13:34:09;;;;;;;5.00;1.90;;;5.20;99.90;;;;;;6312216;22;20190;-89
2022/04/01 13:36:40;;;;;;;5.33;1.63;;;5.10;99.90;;;;;;6312472;22;20228;-90
2022/04/01 13:39:12;;;;;;;3.67;1.83;;;5.10;99.90;;;;;;6311772;22;20174;-90
2022/04/01 13:41:47;;;;;;;3.57;1.60;;;5.10;99.90;;;;;;6293866;22;20186;-91
2022/04/01 13:44:19;;;;;;;3.80;1.60;;;5.10;99.90;;;;;;6333165;22;20168;-90
2022/04/01 13:46:50;;;;;;;3.67;1.60;;;5.00;99.90;;;;;;6332936;22;20174;-88
2022/04/01 13:49:22;;;;;;;6.13;2.20;;;5.00;99.90;;;;;;6306488;22;20209;-90
2022/04/01 13:51:54;;;;;;;6.70;2.20;;;5.00;99.90;;;;;;6296573;22;20199;-91
2022/04/01 13:54:25;;;;;;;5.00;2.07;;;5.00;99.90;;;;;;6295147;22;20179;-91
2022/04/01 13:57:00;;;;;;;4.50;1.50;;;5.00;99.90;;;;;;6297418;22;20171;-91
2022/04/01 13:59:31;;;;;;;3.73;1.50;;;5.00;99.90;;;;;;6294128;22;20246;-90
2022/04/01 14:02:04;;;;;;;5.23;1.73;;;5.00;99.90;;;;;;6292122;22;20185;-91
2022/04/01 14:04:36;;;;;;;4.70;1.63;;;5.10;99.90;;;;;;6287261;22;20236;-91
2022/04/01 14:07:09;;;;;;;6.40;1.90;;;5.10;99.90;;;;;;6280843;22;20182;-91
2022/04/01 14:09:44;;;;;;;5.60;1.57;;;5.10;99.90;;;;;;6260566;22;20171;-90
2022/04/01 14:12:34;;;;;;;6.63;1.77;;;5.10;99.90;;;;;;6262214;22;20621;-91
2022/04/01 14:15:07;;;;;;;3.63;1.57;;;5.10;99.90;;;;;;6282055;22;20194;-90
2022/04/01 14:17:39;;;;;;;5.23;1.20;;;5.10;99.90;;;;;;6281442;22;20554;-91
2022/04/01 14:20:12;;;;;;;5.20;1.23;;;5.10;99.90;;;;;;6279975;22;20176;-91
2022/04/01 14:22:43;;;;;;;5.73;1.80;;;5.10;99.90;;;;;;6281752;22;20175;-91
2022/04/01 14:25:15;;;;;;;2.60;2.07;;;5.10;99.90;;;;;;6282575;22;20167;-91
2022/04/01 14:27:48;;;;;;;4.03;1.50;;;5.10;99.90;;;;;;6283823;22;20175;-90
2022/04/01 14:30:21;;;;;;;4.00;1.50;;;5.10;99.90;;;;;;6284554;22;20214;-90
2022/04/01 14:32:54;;;;;;;2.40;1.20;;;5.10;99.90;;;;;;6283586;22;20179;-89
2022/04/01 14:35:27;;;;;;;5.10;1.50;;;5.10;99.90;;;;;;6295000;22;20175;-90
2022/04/01 14:37:58;;;;;;;7.53;1.50;;;5.10;99.90;;;;;;6279019;22;20163;-91
2022/04/01 14:43:25;;;;;;;3.17;1.30;;;5.20;99.90;;;;;;6299292;22;20195;-91
2022/04/01 14:45:59;;;;;;;3.87;1.60;;;5.20;99.90;;;;;;6333793;22;20170;-92
2022/04/01 14:48:32;;;;;;;5.50;1.33;;;5.30;99.90;;;;;;6327662;22;20220;-91
2022/04/01 14:51:05;;;;;;;6.07;1.77;;;5.30;99.90;;;;;;6328291;22;20198;-91
2022/04/01 14:56:25;;;;;;;5.83;1.60;;;5.40;99.90;;;;;;6329260;22;20216;-91
2022/04/01 14:58:58;;;;;;;5.33;1.47;;;5.40;99.90;;;;;;6326637;22;20221;-91
2022/04/01 15:01:30;;;;;;;5.07;1.47;;;5.50;99.90;;;;;;6301362;22;20179;-90
2022/04/01 15:04:18;;;;;;;6.83;1.93;;;5.60;99.90;;;;;;6325866;22;20212;-91
2022/04/01 15:09:37;;;;;;;4.43;1.30;;;5.70;99.90;;;;;;6327403;22;20201;-90
2022/04/01 15:12:10;;;;;;;6.43;1.70;;;5.80;99.90;;;;;;6299896;22;20639;-91
2022/04/01 15:15:01;;;;;;;4.37;1.30;;;5.90;99.90;;;;;;6329733;22;20200;-91
2022/04/01 15:20:35;;;;;;;6.17;1.37;;;6.10;99.90;;;;;;6315610;22;20175;-91
2022/04/01 15:23:19;;;;;;;5.83;1.20;;;6.20;99.90;;;;;;6334086;22;20178;-90
2022/04/01 15:25:51;;;;;;;3.30;1.20;;;6.30;99.90;;;;;;6328604;22;20175;-90
2022/04/01 15:28:28;;;;;;;3.50;1.20;;;6.40;99.90;;;;;;6329955;22;20176;-91
2022/04/01 15:31:21;;;;;;;4.83;1.13;;;6.50;99.90;;;;;;6331637;22;20247;-91